Time;durP1;ratioP1;P1;durP2;ratioP2;P2;SDS_P1;SDS_P2;PMS_P1;PMS_P2;Temp;Humidity;BMP_temperature;BMP_pressure;BME280_temperature;BME280_humidity;BME280_pressure;Samples;Min_cycle;Max_cycle;Signal;HPM_P1;HPM_P2
2022/04/24 00:00:27;;;;;;;;;29.50;25.50;;;;;-145.45;100.00;57426.63;5062187;27;45300;-72
2022/04/24 00:02:53;;;;;;;;;30.75;25.75;;;;;-145.45;100.00;57426.63;5068909;27;45474;-72
2022/04/24 00:05:18;;;;;;;;;28.50;26.75;;;;;-145.45;100.00;57426.63;5060996;27;45465;-72
2022/04/24 00:07:43;;;;;;;;;26.00;25.50;;;;;-145.45;100.00;57426.63;5071608;27;45522;-72
2022/04/24 00:10:10;;;;;;;;;22.50;22.50;;;;;-145.45;100.00;57426.63;5058550;28;46358;-72
2022/04/24 00:12:36;;;;;;;;;21.75;21.00;;;;;-145.45;100.00;57426.63;5066022;28;46240;-72
2022/04/24 00:15:01;;;;;;;;;18.50;18.00;;;;;-145.45;100.00;57426.63;5059726;28;45314;-72
2022/04/24 00:17:26;;;;;;;;;20.00;18.00;;;;;-145.45;100.00;57426.63;5064369;27;45326;-71
2022/04/24 00:19:52;;;;;;;;;17.50;15.50;;;;;-145.45;100.00;57426.63;5060151;27;45290;-71
2022/04/24 00:22:17;;;;;;;;;17.25;16.25;;;;;-145.45;100.00;57426.63;5069826;28;46129;-71
2022/04/24 00:24:43;;;;;;;;;16.00;13.75;;;;;-145.45;100.00;57426.63;5063713;28;45438;-71
2022/04/24 00:27:08;;;;;;;;;19.75;16.00;;;;;-145.45;100.00;57426.63;5063230;27;45980;-71
2022/04/24 00:29:34;;;;;;;;;20.75;20.25;;;;;-145.45;100.00;57426.63;5060411;27;45326;-71
2022/04/24 00:31:59;;;;;;;;;20.25;17.75;;;;;-145.45;100.00;57426.63;5069120;28;46048;-71
2022/04/24 00:34:25;;;;;;;;;22.00;19.50;;;;;-145.45;100.00;57426.63;5058994;27;45278;-72
2022/04/24 00:36:50;;;;;;;;;20.00;18.00;;;;;-145.45;100.00;57426.63;5065246;28;45314;-70
2022/04/24 00:39:16;;;;;;;;;16.25;14.75;;;;;-145.45;100.00;57426.63;5071978;28;45446;-71
2022/04/24 00:41:46;;;;;;;;;19.25;17.25;;;;;-145.45;100.00;57426.63;5063780;28;45227;-71
2022/04/24 00:44:11;;;;;;;;;18.75;17.75;;;;;-145.45;100.00;57426.63;5071271;28;45516;-71
2022/04/24 00:46:45;;;;;;;;;16.50;16.25;;;;;-145.45;100.00;57426.63;5066147;28;45296;-72
2022/04/24 00:49:12;;;;;;;;;21.75;20.50;;;;;-145.45;100.00;57426.63;5079409;28;45292;-72
2022/04/24 00:51:38;;;;;;;;;19.25;17.75;;;;;-145.45;100.00;57426.63;5075774;28;46328;-72
2022/04/24 00:54:08;;;;;;;;;17.25;17.00;;;;;-145.45;100.00;57426.63;5070147;28;45278;-72
2022/04/24 00:56:35;;;;;;;;;21.50;20.00;;;;;-145.45;100.00;57426.63;5068415;28;45489;-72
2022/04/24 00:59:04;;;;;;;;;19.50;18.25;;;;;-145.45;100.00;57426.63;5070424;28;45443;-72
2022/04/24 01:01:29;;;;;;;;;24.50;20.75;;;;;-145.45;100.00;57426.63;5066946;28;46431;-72
2022/04/24 01:04:02;;;;;;;;;20.25;15.75;;;;;-145.45;100.00;57426.63;5069422;28;45915;-72
2022/04/24 01:06:39;;;;;;;;;17.50;17.50;;;;;-145.45;100.00;57426.63;5065815;28;45636;-72
2022/04/24 01:09:23;;;;;;;;;21.75;19.00;;;;;-145.45;100.00;57426.63;5068025;28;45781;-72
2022/04/24 01:11:51;;;;;;;;;16.75;15.75;;;;;-145.45;100.00;57426.63;5064223;28;45392;-72
2022/04/24 01:14:19;;;;;;;;;19.25;16.50;;;;;-145.45;100.00;57426.63;5066739;28;45368;-72
2022/04/24 01:16:45;;;;;;;;;21.75;19.75;;;;;-145.45;100.00;57426.63;5076990;28;45400;-72
2022/04/24 01:19:12;;;;;;;;;17.75;16.25;;;;;-145.45;100.00;57426.63;5063975;27;45379;-72
2022/04/24 01:21:40;;;;;;;;;17.00;15.50;;;;;-145.45;100.00;57426.63;5068550;28;46352;-72
2022/04/24 01:24:07;;;;;;;;;21.25;18.00;;;;;-145.45;100.00;57426.63;5064780;27;45369;-72
2022/04/24 01:26:33;;;;;;;;;16.50;16.25;;;;;-145.45;100.00;57426.63;5068010;28;45283;-72
2022/04/24 01:28:59;;;;;;;;;17.75;17.75;;;;;-145.45;100.00;57426.63;5065449;28;45296;-72
2022/04/24 01:31:24;;;;;;;;;19.50;16.25;;;;;-145.45;100.00;57426.63;5069447;28;46213;-72
2022/04/24 01:33:49;;;;;;;;;16.00;15.50;;;;;-145.45;100.00;57426.63;5066752;27;45312;-72
2022/04/24 01:36:15;;;;;;;;;23.50;17.75;;;;;-145.45;100.00;57426.63;5067738;28;44839;-72
2022/04/24 01:38:41;;;;;;;;;20.50;17.00;;;;;-145.45;100.00;57426.63;5074269;28;45294;-72
2022/04/24 01:41:07;;;;;;;;;14.75;14.00;;;;;-145.45;100.00;57426.63;5066202;28;45432;-72
2022/04/24 01:43:32;;;;;;;;;16.00;16.00;;;;;-145.45;100.00;57426.63;5072647;28;45288;-72
2022/04/24 01:45:58;;;;;;;;;18.50;18.25;;;;;-145.45;100.00;57426.63;5063402;28;45186;-72
2022/04/24 01:48:23;;;;;;;;;18.75;15.75;;;;;-145.45;100.00;57426.63;5077402;28;45675;-73
2022/04/24 01:50:53;;;;;;;;;18.25;18.25;;;;;-145.45;100.00;57426.63;5064732;28;45261;-72
2022/04/24 01:53:18;;;;;;;;;13.00;12.50;;;;;-145.45;100.00;57426.63;5064786;27;45428;-72
2022/04/24 01:55:43;;;;;;;;;19.25;17.00;;;;;-145.45;100.00;57426.63;5065159;28;45469;-71
2022/04/24 01:58:09;;;;;;;;;15.50;15.00;;;;;-145.45;100.00;57426.63;5070622;27;45446;-72
2022/04/24 02:00:34;;;;;;;;;17.75;16.25;;;;;-145.45;100.00;57426.63;5069208;28;47313;-72
2022/04/24 02:02:59;;;;;;;;;15.00;15.00;;;;;-145.45;100.00;57426.63;5069965;28;45449;-72
2022/04/24 02:05:25;;;;;;;;;17.00;16.75;;;;;-145.45;100.00;57426.63;5062691;28;45305;-71
2022/04/24 02:07:50;;;;;;;;;18.25;15.25;;;;;-145.45;100.00;57426.63;5067753;27;45440;-72
2022/04/24 02:10:15;;;;;;;;;16.00;16.00;;;;;-145.45;100.00;57426.63;5061147;28;45468;-72
2022/04/24 02:12:41;;;;;;;;;15.25;15.25;;;;;-145.45;100.00;57426.63;5071018;27;45425;-72
2022/04/24 02:15:07;;;;;;;;;17.75;16.00;;;;;-145.45;100.00;57426.63;5065467;28;45373;-72
2022/04/24 02:17:34;;;;;;;;;14.50;11.50;;;;;-145.45;100.00;57426.63;5066009;28;45502;-72
2022/04/24 02:19:59;;;;;;;;;13.75;13.00;;;;;-145.45;100.00;57426.63;5060161;28;47059;-72
2022/04/24 02:22:30;;;;;;;;;14.00;12.75;;;;;-145.45;100.00;57426.63;5071780;27;45446;-71
2022/04/24 02:24:56;;;;;;;;;19.25;16.50;;;;;-145.45;100.00;57426.63;5061082;28;45331;-71
2022/04/24 02:27:21;;;;;;;;;21.50;15.75;;;;;-145.45;100.00;57426.63;5071101;28;45672;-71
2022/04/24 02:29:46;;;;;;;;;16.00;15.00;;;;;-145.45;100.00;57426.63;5060606;28;45348;-71
2022/04/24 02:32:12;;;;;;;;;21.50;17.50;;;;;-145.45;100.00;57426.63;5067587;28;45333;-73
2022/04/24 02:34:37;;;;;;;;;16.50;15.75;;;;;-145.45;100.00;57426.63;5073331;27;45401;-72
2022/04/24 02:37:03;;;;;;;;;12.50;12.50;;;;;-145.45;100.00;57426.63;5065490;28;45263;-72
2022/04/24 02:39:28;;;;;;;;;15.50;13.00;;;;;-145.45;100.00;57426.63;5072399;28;45255;-71
2022/04/24 02:41:53;;;;;;;;;17.25;16.25;;;;;-145.45;100.00;57426.63;5068692;28;45240;-71
2022/04/24 02:44:19;;;;;;;;;21.50;19.50;;;;;-145.45;100.00;57426.63;5071109;28;45425;-72
2022/04/24 02:46:44;;;;;;;;;19.25;15.75;;;;;-145.45;100.00;57426.63;5065792;28;45255;-71
2022/04/24 02:49:09;;;;;;;;;19.50;16.25;;;;;-145.45;100.00;57426.63;5076105;28;45284;-72
2022/04/24 02:51:35;;;;;;;;;16.75;15.00;;;;;-145.45;100.00;57426.63;5073638;28;45397;-71
2022/04/24 02:54:00;;;;;;;;;16.25;16.25;;;;;-145.45;100.00;57426.63;5069335;28;45293;-71
2022/04/24 02:56:25;;;;;;;;;18.00;16.00;;;;;-145.45;100.00;57426.63;5066731;28;45397;-72
2022/04/24 02:58:51;;;;;;;;;14.00;13.75;;;;;-145.45;100.00;57426.63;5067946;28;46417;-71
2022/04/24 03:01:16;;;;;;;;;15.75;13.75;;;;;-145.45;100.00;57426.63;5064159;28;45296;-72
2022/04/24 03:03:42;;;;;;;;;22.00;18.50;;;;;-145.45;100.00;57426.63;5067059;27;45164;-71
2022/04/24 03:06:07;;;;;;;;;18.00;16.75;;;;;-145.45;100.00;57426.63;5062509;28;45268;-71
2022/04/24 03:08:33;;;;;;;;;16.75;15.00;;;;;-145.45;100.00;57426.63;5064700;27;45483;-71
2022/04/24 03:10:59;;;;;;;;;13.50;13.50;;;;;-145.45;100.00;57426.63;5063533;28;45297;-72
2022/04/24 03:13:24;;;;;;;;;19.00;16.25;;;;;-145.45;100.00;57426.63;5068912;27;45225;-71
2022/04/24 03:15:49;;;;;;;;;18.00;18.00;;;;;-145.45;100.00;57426.63;5061966;28;45459;-72
2022/04/24 03:18:15;;;;;;;;;17.00;15.25;;;;;-145.45;100.00;57426.63;5068316;28;46893;-71
2022/04/24 03:20:40;;;;;;;;;17.75;16.00;;;;;-145.45;100.00;57426.63;5061918;28;45473;-72
2022/04/24 03:23:06;;;;;;;;;19.75;19.50;;;;;-145.45;100.00;57426.63;5068684;28;45285;-71
2022/04/24 03:25:31;;;;;;;;;18.25;15.75;;;;;-145.45;100.00;57426.63;5061924;28;45308;-72
2022/04/24 03:27:56;;;;;;;;;19.50;19.50;;;;;-145.45;100.00;57426.63;5066702;28;47235;-71
2022/04/24 03:30:22;;;;;;;;;25.00;22.75;;;;;-145.45;100.00;57426.63;5070368;28;45476;-72
2022/04/24 03:32:48;;;;;;;;;28.25;23.00;;;;;-145.45;100.00;57426.63;5070053;27;45327;-73
2022/04/24 03:35:13;;;;;;;;;22.50;19.00;;;;;-145.45;100.00;57426.63;5066942;27;45208;-72
2022/04/24 03:37:39;;;;;;;;;24.25;22.25;;;;;-145.45;100.00;57426.63;5068202;28;46440;-72
2022/04/24 03:40:06;;;;;;;;;19.25;19.25;;;;;-145.45;100.00;57426.63;5072195;27;45596;-72
2022/04/24 03:42:35;;;;;;;;;22.75;21.25;;;;;-145.45;100.00;57426.63;5070699;28;45400;-72
2022/04/24 03:45:01;;;;;;;;;20.50;19.00;;;;;-145.45;100.00;57426.63;5066026;27;45562;-73
2022/04/24 03:47:27;;;;;;;;;24.50;22.25;;;;;-145.45;100.00;57426.63;5069314;27;47213;-72
2022/04/24 03:49:53;;;;;;;;;24.50;20.75;;;;;-145.45;100.00;57426.63;5078636;28;45358;-72
2022/04/24 03:52:19;;;;;;;;;24.75;23.25;;;;;-145.45;100.00;57426.63;5068356;28;45505;-73
2022/04/24 03:54:44;;;;;;;;;24.00;23.00;;;;;-145.45;100.00;57426.63;5065272;28;45825;-73
2022/04/24 03:57:10;;;;;;;;;24.25;20.50;;;;;-145.45;100.00;57426.63;5068182;28;47245;-72
2022/04/24 03:59:35;;;;;;;;;24.00;22.50;;;;;-145.45;100.00;57426.63;5066680;27;45236;-72
2022/04/24 04:02:02;;;;;;;;;30.75;28.25;;;;;-145.45;100.00;57426.63;5061283;28;47000;-71
2022/04/24 04:04:28;;;;;;;;;26.50;25.25;;;;;-145.45;100.00;57426.63;5060711;28;45435;-71
2022/04/24 04:06:53;;;;;;;;;25.50;25.50;;;;;-145.45;100.00;57426.63;5060716;28;45506;-72
2022/04/24 04:09:19;;;;;;;;;25.00;20.50;;;;;-145.45;100.00;57426.63;5067740;28;45469;-71
2022/04/24 04:11:45;;;;;;;;;24.50;23.00;;;;;-145.45;100.00;57426.63;5067927;28;45470;-70
2022/04/24 04:14:10;;;;;;;;;26.00;22.25;;;;;-145.45;100.00;57426.63;5063681;27;45306;-70
2022/04/24 04:16:35;;;;;;;;;30.25;27.00;;;;;-145.45;100.00;57426.63;5067749;28;47201;-71
2022/04/24 04:19:01;;;;;;;;;30.75;24.50;;;;;-145.45;100.00;57426.63;5064924;27;45241;-70
2022/04/24 04:21:26;;;;;;;;;25.00;22.75;;;;;-145.45;100.00;57426.63;5072086;28;45333;-70
2022/04/24 04:23:52;;;;;;;;;22.00;21.50;;;;;-145.45;100.00;57426.63;5077024;28;46001;-70
2022/04/24 04:26:17;;;;;;;;;25.25;24.25;;;;;-145.45;100.00;57426.63;5070673;27;46246;-71
2022/04/24 04:28:46;;;;;;;;;27.50;23.50;;;;;-145.45;100.00;57426.63;5062197;28;45395;-71
2022/04/24 04:31:13;;;;;;;;;30.50;27.50;;;;;-145.45;100.00;57426.63;5073789;28;45386;-72
2022/04/24 04:33:39;;;;;;;;;26.75;23.50;;;;;-145.45;100.00;57426.63;5071243;27;46264;-69
2022/04/24 04:36:05;;;;;;;;;31.25;29.50;;;;;-145.45;100.00;57426.63;5065161;27;45362;-71
2022/04/24 04:38:30;;;;;;;;;25.50;23.25;;;;;-145.45;100.00;57426.63;5064107;28;45331;-70
2022/04/24 04:40:56;;;;;;;;;32.25;28.00;;;;;-145.45;100.00;57426.63;5076188;28;45351;-70
2022/04/24 04:43:21;;;;;;;;;29.50;28.00;;;;;-145.45;100.00;57426.63;5070528;27;45359;-70
2022/04/24 04:45:47;;;;;;;;;27.50;26.75;;;;;-145.45;100.00;57426.63;5063863;28;46628;-70
2022/04/24 04:48:13;;;;;;;;;30.75;27.25;;;;;-145.45;100.00;57426.63;5063648;28;45359;-70
2022/04/24 04:50:38;;;;;;;;;30.00;26.50;;;;;-145.45;100.00;57426.63;5066183;28;45264;-70
2022/04/24 04:53:03;;;;;;;;;30.50;24.00;;;;;-145.45;100.00;57426.63;5068366;27;46290;-70
2022/04/24 04:55:29;;;;;;;;;26.50;25.00;;;;;-145.45;100.00;57426.63;5062452;28;45274;-70
2022/04/24 04:57:54;;;;;;;;;26.50;24.00;;;;;-145.45;100.00;57426.63;5061345;28;45259;-70
2022/04/24 05:00:20;;;;;;;;;28.75;25.75;;;;;-145.45;100.00;57426.63;5061368;28;45405;-69
2022/04/24 05:02:45;;;;;;;;;26.50;25.25;;;;;-145.45;100.00;57426.63;5064617;28;45529;-69
2022/04/24 05:05:11;;;;;;;;;18.50;18.50;;;;;-145.45;100.00;57426.63;5061384;28;47064;-70
2022/04/24 05:07:36;;;;;;;;;23.00;21.25;;;;;-145.45;100.00;57426.63;5083909;27;45456;-71
2022/04/24 05:10:03;;;;;;;;;30.25;26.25;;;;;-145.45;100.00;57426.63;5060697;28;45469;-70
2022/04/24 05:12:30;;;;;;;;;30.50;26.00;;;;;-145.45;100.00;57426.63;5065619;28;45586;-70
2022/04/24 05:15:03;;;;;;;;;32.25;28.00;;;;;-145.45;100.00;57426.63;5070933;27;45431;-70
2022/04/24 05:17:28;;;;;;;;;29.00;26.00;;;;;-145.45;100.00;57426.63;5072066;28;45480;-70
2022/04/24 05:19:55;;;;;;;;;27.00;23.25;;;;;-145.45;100.00;57426.63;5066975;28;45291;-70
2022/04/24 05:22:20;;;;;;;;;27.75;24.00;;;;;-145.45;100.00;57426.63;5072272;28;45374;-70
2022/04/24 05:24:45;;;;;;;;;32.00;29.50;;;;;-145.45;100.00;57426.63;5061266;28;45400;-70
2022/04/24 05:27:11;;;;;;;;;24.25;20.25;;;;;-145.45;100.00;57426.63;5069818;28;45671;-69
2022/04/24 05:29:36;;;;;;;;;26.25;22.75;;;;;-145.45;100.00;57426.63;5059194;28;45636;-70
2022/04/24 05:32:02;;;;;;;;;25.25;20.75;;;;;-145.45;100.00;57426.63;5063918;28;45703;-71
2022/04/24 05:34:28;;;;;;;;;22.75;22.50;;;;;-145.45;100.00;57426.63;5058426;28;46084;-71
2022/04/24 05:36:53;;;;;;;;;26.50;22.75;;;;;-145.45;100.00;57426.63;5064156;28;45868;-70
2022/04/24 05:39:19;;;;;;;;;24.25;22.50;;;;;-145.45;100.00;57426.63;5071121;28;45361;-72
2022/04/24 05:41:45;;;;;;;;;28.25;25.00;;;;;-145.45;100.00;57426.63;5067814;28;45395;-73
2022/04/24 05:44:10;;;;;;;;;23.50;21.75;;;;;-145.45;100.00;57426.63;5076561;28;46220;-71
2022/04/24 05:46:35;;;;;;;;;21.75;20.00;;;;;-145.45;100.00;57426.63;5065369;28;45551;-71
2022/04/24 05:49:02;;;;;;;;;29.75;23.00;;;;;-145.45;100.00;57426.63;5076688;28;45271;-72
2022/04/24 05:51:28;;;;;;;;;28.75;25.00;;;;;-145.45;100.00;57426.63;5074357;28;47251;-72
2022/04/24 05:53:54;;;;;;;;;18.75;15.25;;;;;-145.45;100.00;57426.63;5067105;28;46423;-73
2022/04/24 05:56:20;;;;;;;;;23.75;21.00;;;;;-145.45;100.00;57426.63;5066266;28;45422;-73
2022/04/24 05:58:45;;;;;;;;;26.00;22.25;;;;;-145.45;100.00;57426.63;5083535;27;45351;-73
2022/04/24 06:01:11;;;;;;;;;25.75;23.50;;;;;-145.45;100.00;57426.63;5063576;28;45350;-73
2022/04/24 06:03:40;;;;;;;;;27.00;26.75;;;;;-145.45;100.00;57426.63;5082381;27;47638;-72
2022/04/24 06:06:05;;;;;;;;;31.75;28.50;;;;;-145.45;100.00;57426.63;5062799;28;45430;-72
2022/04/24 06:08:31;;;;;;;;;21.50;21.50;;;;;-145.45;100.00;57426.63;5064038;28;45252;-73
2022/04/24 06:10:56;;;;;;;;;29.00;24.25;;;;;-145.45;100.00;57426.63;5068402;28;45318;-72
2022/04/24 06:13:22;;;;;;;;;26.75;24.75;;;;;-145.45;100.00;57426.63;5069112;28;45320;-73
2022/04/24 06:15:48;;;;;;;;;25.00;23.25;;;;;-145.45;100.00;57426.63;5062892;28;45463;-72
2022/04/24 06:18:13;;;;;;;;;24.25;24.00;;;;;-145.45;100.00;57426.63;5067775;28;45276;-73
2022/04/24 06:20:39;;;;;;;;;24.50;21.75;;;;;-145.45;100.00;57426.63;5070852;28;45359;-72
2022/04/24 06:23:05;;;;;;;;;23.25;23.25;;;;;-145.45;100.00;57426.63;5069059;28;46059;-73
2022/04/24 06:25:34;;;;;;;;;27.25;24.50;;;;;-145.45;100.00;57426.63;5062017;28;45819;-73
2022/04/24 06:28:01;;;;;;;;;28.25;24.75;;;;;-145.45;100.00;57426.63;5065582;28;45410;-72
2022/04/24 06:30:29;;;;;;;;;25.25;23.75;;;;;-145.45;100.00;57426.63;5067949;27;45176;-72
2022/04/24 06:32:57;;;;;;;;;29.25;26.25;;;;;-145.45;100.00;57426.63;5070658;28;47391;-72
2022/04/24 06:35:23;;;;;;;;;25.75;23.50;;;;;-145.45;100.00;57426.63;5064772;28;46046;-73
2022/04/24 06:37:55;;;;;;;;;26.00;20.50;;;;;-145.45;100.00;57426.63;5069716;28;45317;-73
2022/04/24 06:40:23;;;;;;;;;25.75;24.00;;;;;-145.45;100.00;57426.63;5065805;27;45471;-72
2022/04/24 06:42:55;;;;;;;;;27.00;24.75;;;;;-145.45;100.00;57426.63;5072041;27;46176;-72
2022/04/24 06:45:25;;;;;;;;;26.50;24.50;;;;;-145.45;100.00;57426.63;5062886;28;45336;-72
2022/04/24 06:47:52;;;;;;;;;31.75;29.00;;;;;-145.45;100.00;57426.63;5071209;27;45370;-72
2022/04/24 06:50:17;;;;;;;;;29.50;27.25;;;;;-145.45;100.00;57426.63;5078329;27;45224;-73
2022/04/24 06:52:43;;;;;;;;;31.25;28.00;;;;;-145.45;100.00;57426.63;5071445;27;47628;-73
2022/04/24 06:55:08;;;;;;;;;29.75;27.75;;;;;-145.45;100.00;57426.63;5079413;27;45782;-74
2022/04/24 06:57:34;;;;;;;;;28.00;25.50;;;;;-145.45;100.00;57426.63;5069507;28;45322;-73
2022/04/24 07:00:00;;;;;;;;;29.25;23.50;;;;;-145.45;100.00;57426.63;5064388;27;45291;-73
2022/04/24 07:02:25;;;;;;;;;27.75;26.75;;;;;-145.45;100.00;57426.63;5067065;28;46333;-73
2022/04/24 07:04:50;;;;;;;;;35.00;30.50;;;;;-145.45;100.00;57426.63;5064280;27;45407;-73
2022/04/24 07:07:16;;;;;;;;;23.25;23.25;;;;;-145.45;100.00;57426.63;5062925;28;45480;-73
2022/04/24 07:09:41;;;;;;;;;25.25;25.00;;;;;-145.45;100.00;57426.63;5069959;28;46147;-73
2022/04/24 07:12:07;;;;;;;;;30.75;27.25;;;;;-145.45;100.00;57426.63;5069772;28;46121;-73
2022/04/24 07:14:32;;;;;;;;;31.50;26.50;;;;;-145.45;100.00;57426.63;5059957;28;45308;-73
2022/04/24 07:16:58;;;;;;;;;26.00;25.00;;;;;-145.45;100.00;57426.63;5069050;28;45331;-73
2022/04/24 07:19:23;;;;;;;;;32.75;28.00;;;;;-145.45;100.00;57426.63;5076317;27;45295;-73
2022/04/24 07:21:49;;;;;;;;;26.50;25.50;;;;;-145.45;100.00;57426.63;5073016;27;45437;-73
2022/04/24 07:24:14;;;;;;;;;34.00;30.50;;;;;-145.45;100.00;57426.63;5062514;27;45228;-73
2022/04/24 07:26:40;;;;;;;;;30.75;28.50;;;;;-145.45;100.00;57426.63;5066005;28;45343;-73
2022/04/24 07:29:05;;;;;;;;;32.25;29.00;;;;;-145.45;100.00;57426.63;5063517;28;47096;-73
2022/04/24 07:31:30;;;;;;;;;34.75;29.25;;;;;-145.45;100.00;57426.63;5073293;27;45536;-73
2022/04/24 07:33:56;;;;;;;;;37.25;32.50;;;;;-145.45;100.00;57426.63;5072500;28;45291;-73
2022/04/24 07:36:22;;;;;;;;;35.00;31.25;;;;;-145.45;100.00;57426.63;5064839;28;45310;-73
2022/04/24 07:38:50;;;;;;;;;30.50;28.75;;;;;-145.45;100.00;57426.63;5071691;28;45429;-73
2022/04/24 07:41:15;;;;;;;;;42.00;33.00;;;;;-145.45;100.00;57426.63;5061971;28;45387;-73
2022/04/24 07:43:48;;;;;;;;;45.25;33.50;;;;;-145.45;100.00;57426.63;5076487;27;45362;-73
2022/04/24 07:46:13;;;;;;;;;34.00;31.00;;;;;-145.45;100.00;57426.63;5064813;28;45236;-74
2022/04/24 07:48:39;;;;;;;;;34.50;32.75;;;;;-145.45;100.00;57426.63;5071016;28;45372;-74
2022/04/24 07:51:04;;;;;;;;;38.50;32.75;;;;;-145.45;100.00;57426.63;5074876;28;45528;-74
2022/04/24 07:53:29;;;;;;;;;39.00;32.00;;;;;-145.45;100.00;57426.63;5072191;27;45614;-75
2022/04/24 07:55:55;;;;;;;;;39.00;31.75;;;;;-145.45;100.00;57426.63;5064624;28;45306;-74
2022/04/24 07:58:20;;;;;;;;;34.50;30.00;;;;;-145.45;100.00;57426.63;5067331;28;46150;-73
2022/04/24 08:00:47;;;;;;;;;34.00;31.50;;;;;-145.45;100.00;57426.63;5062515;28;46358;-74
2022/04/24 08:03:14;;;;;;;;;35.50;30.00;;;;;-145.45;100.00;57426.63;5066594;28;45395;-75
2022/04/24 08:05:43;;;;;;;;;35.50;31.25;;;;;-145.45;100.00;57426.63;5065305;28;45248;-74
2022/04/24 08:08:13;;;;;;;;;35.75;33.00;;;;;-145.45;100.00;57426.63;5063146;28;46594;-73
2022/04/24 08:10:40;;;;;;;;;34.33;31.67;;;;;-145.45;100.00;57426.63;5075081;28;47262;-74
2022/04/24 08:13:06;;;;;;;;;36.50;32.00;;;;;-145.45;100.00;57426.63;5066962;28;45359;-73
2022/04/24 08:15:33;;;;;;;;;38.25;32.25;;;;;-145.45;100.00;57426.63;5060396;28;45311;-73
2022/04/24 08:17:59;;;;;;;;;35.50;30.75;;;;;-145.45;100.00;57426.63;5067911;27;45599;-74
2022/04/24 08:20:24;;;;;;;;;44.25;32.25;;;;;-145.45;100.00;57426.63;5059337;28;45326;-73
2022/04/24 08:22:52;;;;;;;;;40.25;32.75;;;;;-145.45;100.00;57426.63;5068863;27;45398;-74
2022/04/24 08:25:20;;;;;;;;;39.25;34.50;;;;;-145.45;100.00;57426.63;5058983;28;45370;-73
2022/04/24 08:27:47;;;;;;;;;39.00;33.33;;;;;-145.45;100.00;57426.63;5069020;28;45221;-75
2022/04/24 08:30:14;;;;;;;;;39.75;33.00;;;;;-145.45;100.00;57426.63;5058566;28;45591;-72
2022/04/24 08:32:41;;;;;;;;;35.67;32.33;;;;;-145.45;100.00;57426.63;5065361;28;45410;-73
2022/04/24 08:35:09;;;;;;;;;32.33;31.00;;;;;-145.45;100.00;57426.63;5057940;28;45244;-73
2022/04/24 08:37:34;;;;;;;;;45.67;33.00;;;;;-145.45;100.00;57426.63;5066475;28;45583;-74
2022/04/24 08:40:00;;;;;;;;;39.33;32.33;;;;;-145.45;100.00;57426.63;5067881;28;45513;-73
2022/04/24 08:42:27;;;;;;;;;36.33;31.67;;;;;-145.45;100.00;57426.63;5068659;28;45681;-74
2022/04/24 08:44:56;;;;;;;;;37.00;32.00;;;;;-145.45;100.00;57426.63;5068413;27;44720;-72
2022/04/24 08:47:24;;;;;;;;;31.33;30.00;;;;;-145.45;100.00;57426.63;5065545;28;45398;-73
2022/04/24 08:49:52;;;;;;;;;34.67;28.67;;;;;-145.45;100.00;57426.63;5078356;27;47142;-74
2022/04/24 08:52:20;;;;;;;;;31.00;27.67;;;;;-145.45;100.00;57426.63;5065968;28;45248;-75
2022/04/24 08:54:46;;;;;;;;;39.00;32.33;;;;;-145.45;100.00;57426.63;5065796;27;45311;-74
2022/04/24 08:57:12;;;;;;;;;32.67;30.33;;;;;-145.45;100.00;57426.63;5064185;28;45421;-74
2022/04/24 08:59:38;;;;;;;;;35.67;30.67;;;;;-145.45;100.00;57426.63;5065438;28;45334;-74
2022/04/24 09:02:05;;;;;;;;;35.33;32.33;;;;;-145.45;100.00;57426.63;5061504;28;45531;-74
2022/04/24 09:04:32;;;;;;;;;32.00;31.00;;;;;-145.45;100.00;57426.63;5063838;28;45466;-74
2022/04/24 09:07:00;;;;;;;;;37.00;33.67;;;;;-145.45;100.00;57426.63;5068533;28;46179;-74
2022/04/24 09:09:25;;;;;;;;;28.67;27.00;;;;;-145.45;100.00;57426.63;5063185;27;45960;-74
2022/04/24 09:11:51;;;;;;;;;33.33;31.33;;;;;-145.45;100.00;57426.63;5069085;28;45462;-73
2022/04/24 09:14:19;;;;;;;;;36.67;32.00;;;;;-145.45;100.00;57426.63;5064479;27;45390;-74
2022/04/24 09:16:49;;;;;;;;;34.67;30.33;;;;;-145.45;100.00;57426.63;5068586;28;45502;-74
2022/04/24 09:19:23;;;;;;;;;31.67;29.67;;;;;-145.45;100.00;57426.63;5064309;27;46167;-74
2022/04/24 09:22:09;;;;;;;;;34.00;28.33;;;;;-145.45;100.00;57426.63;5069053;28;45282;-74
2022/04/24 09:24:48;;;;;;;;;37.00;32.67;;;;;-145.45;100.00;57426.63;5061778;27;45341;-74
2022/04/24 09:27:27;;;;;;;;;32.67;30.33;;;;;-145.45;100.00;57426.63;5067210;28;45897;-73
2022/04/24 09:29:54;;;;;;;;;36.00;31.67;;;;;-145.45;100.00;57426.63;5061154;28;47007;-74
2022/04/24 09:32:21;;;;;;;;;38.00;33.33;;;;;-145.45;100.00;57426.63;5065902;28;45320;-73
2022/04/24 09:34:47;;;;;;;;;38.00;32.33;;;;;-145.45;100.00;57426.63;5061283;28;45417;-74
2022/04/24 09:37:12;;;;;;;;;30.67;30.00;;;;;-145.45;100.00;57426.63;5069820;28;45485;-73
2022/04/24 09:39:38;;;;;;;;;36.00;31.67;;;;;-145.45;100.00;57426.63;5072158;28;46043;-74
2022/04/24 09:42:11;;;;;;;;;33.33;30.00;;;;;-145.45;100.00;57426.63;5066294;28;45332;-72
2022/04/24 09:44:40;;;;;;;;;30.00;28.00;;;;;-145.45;100.00;57426.63;5071366;28;45331;-71
2022/04/24 09:47:07;;;;;;;;;33.00;30.00;;;;;-145.45;100.00;57426.63;5067670;28;45254;-72
2022/04/24 09:49:40;;;;;;;;;31.00;28.00;;;;;-145.45;100.00;57426.63;5079404;28;46217;-73
2022/04/24 09:52:17;;;;;;;;;33.67;29.67;;;;;-145.45;100.00;57426.63;5072884;28;45271;-74
2022/04/24 09:54:50;;;;;;;;;27.00;25.00;;;;;-145.45;100.00;57426.63;5060943;28;45304;-73
2022/04/24 09:57:17;;;;;;;;;28.67;27.00;;;;;-145.45;100.00;57426.63;5064997;28;45852;-73
2022/04/24 09:59:45;;;;;;;;;29.00;27.33;;;;;-145.45;100.00;57426.63;5067189;27;45333;-73
2022/04/24 10:02:14;;;;;;;;;29.67;27.00;;;;;-145.45;100.00;57426.63;5063973;28;45444;-73
2022/04/24 10:04:40;;;;;;;;;34.33;30.67;;;;;-145.45;100.00;57426.63;5066151;28;45364;-73
2022/04/24 10:07:10;;;;;;;;;27.33;24.00;;;;;-145.45;100.00;57426.63;5070238;28;45480;-73
2022/04/24 10:09:43;;;;;;;;;29.67;28.00;;;;;-145.45;100.00;57426.63;5061024;27;46526;-73
2022/04/24 10:12:10;;;;;;;;;34.00;29.33;;;;;-145.45;100.00;57426.63;5070528;28;45532;-73
2022/04/24 10:14:46;;;;;;;;;32.67;28.00;;;;;-145.45;100.00;57426.63;5062386;28;45319;-73
2022/04/24 10:17:49;;;;;;;;;31.00;28.33;;;;;-145.45;100.00;57426.63;5069169;28;47335;-74
2022/04/24 10:20:39;;;;;;;;;27.67;25.33;;;;;-145.45;100.00;57426.63;5060212;28;46258;-74
2022/04/24 10:23:05;;;;;;;;;30.67;28.00;;;;;-145.45;100.00;57426.63;5069173;28;45255;-73
2022/04/24 10:25:38;;;;;;;;;26.67;25.33;;;;;-145.45;100.00;57426.63;5061384;28;45166;-73
2022/04/24 10:28:11;;;;;;;;;26.33;24.67;;;;;-145.45;100.00;57426.63;5068341;27;45339;-72
2022/04/24 10:30:36;;;;;;;;;32.00;28.00;;;;;-145.45;100.00;57426.63;5056000;28;47174;-73
2022/04/24 10:33:17;;;;;;;;;29.67;25.00;;;;;-145.45;100.00;57426.63;5073719;28;45440;-72
2022/04/24 10:35:52;;;;;;;;;27.67;23.00;;;;;-145.45;100.00;57426.63;5064486;27;45320;-73
2022/04/24 10:38:19;;;;;;;;;24.00;24.00;;;;;-145.45;100.00;57426.63;5071047;28;46332;-73
2022/04/24 10:41:01;;;;;;;;;28.33;25.67;;;;;-145.45;100.00;57426.63;5065202;27;45486;-72
2022/04/24 10:43:51;;;;;;;;;27.00;25.00;;;;;-145.45;100.00;57426.63;5075672;28;45256;-73
2022/04/24 10:46:32;;;;;;;;;25.67;24.00;;;;;-145.45;100.00;57426.63;5073731;27;45244;-72
2022/04/24 10:49:10;;;;;;;;;27.67;25.00;;;;;-145.45;100.00;57426.63;5074582;27;45445;-71
2022/04/24 10:51:37;;;;;;;;;30.67;26.33;;;;;-145.45;100.00;57426.63;5069999;28;47376;-72
2022/04/24 10:54:08;;;;;;;;;26.67;24.00;;;;;-145.45;100.00;57426.63;5067696;28;45442;-73